Time;durP1;ratioP1;P1;durP2;ratioP2;P2;SDS_P1;SDS_P2;PMS_P1;PMS_P2;Temp;Humidity;BMP_temperature;BMP_pressure;BME280_temperature;BME280_humidity;BME280_pressure;Samples;Min_cycle;Max_cycle;Signal;HPM_P1;HPM_P2
2022/02/27 00:02:32;;;;;;;6.60;4.93;;;3.70;66.60;;;;;;6228397;28;20488;-63
2022/02/27 00:05:36;;;;;;;6.90;5.20;;;3.70;67.00;;;;;;6229668;28;20575;-63
2022/02/27 00:08:39;;;;;;;6.10;5.60;;;3.70;67.10;;;;;;6229536;28;20476;-64
2022/02/27 00:11:44;;;;;;;7.30;4.50;;;3.60;67.40;;;;;;6228051;28;20487;-63
2022/02/27 00:14:47;;;;;;;7.90;6.13;;;3.50;67.90;;;;;;6223708;28;20476;-64
2022/02/27 00:17:50;;;;;;;13.00;6.30;;;3.40;68.60;;;;;;6228137;28;20487;-63
2022/02/27 00:20:54;;;;;;;5.90;4.77;;;3.40;69.00;;;;;;6228005;28;20480;-63
2022/02/27 00:23:57;;;;;;;8.83;5.43;;;3.30;69.70;;;;;;6228079;28;20538;-64
2022/02/27 00:27:01;;;;;;;5.10;4.60;;;3.20;69.90;;;;;;6227996;28;20986;-63
2022/02/27 00:30:06;;;;;;;11.00;6.03;;;3.20;70.40;;;;;;6228344;28;20481;-63
2022/02/27 00:33:09;;;;;;;6.30;5.33;;;3.20;70.90;;;;;;6228025;28;20778;-63
2022/02/27 00:36:12;;;;;;;5.50;5.00;;;3.20;71.10;;;;;;6227567;28;20456;-63
2022/02/27 00:39:16;;;;;;;7.30;5.67;;;3.20;71.30;;;;;;6227486;28;20487;-64
2022/02/27 00:42:21;;;;;;;5.40;4.90;;;3.20;71.40;;;;;;6227144;28;20459;-62
2022/02/27 00:45:24;;;;;;;7.53;5.20;;;3.20;71.50;;;;;;6227704;28;20449;-63
2022/02/27 00:48:27;;;;;;;6.67;5.23;;;3.10;71.60;;;;;;6227617;28;20558;-62
2022/02/27 00:51:31;;;;;;;6.10;4.60;;;3.10;72.20;;;;;;6227823;28;20444;-64
2022/02/27 00:54:35;;;;;;;5.80;5.30;;;3.10;72.20;;;;;;6228132;28;20464;-64
2022/02/27 00:57:39;;;;;;;5.83;4.83;;;3.00;72.40;;;;;;6227811;28;20464;-62
2022/02/27 01:00:43;;;;;;;7.53;4.83;;;3.00;72.40;;;;;;6227127;28;20468;-64
2022/02/27 01:03:47;;;;;;;6.07;5.57;;;3.00;72.50;;;;;;6227719;28;20502;-63
2022/02/27 01:06:50;;;;;;;7.97;5.53;;;3.10;72.60;;;;;;6227959;28;20484;-63
2022/02/27 01:09:53;;;;;;;6.90;5.37;;;3.00;73.70;;;;;;6226658;28;20472;-63
2022/02/27 01:12:58;;;;;;;7.37;5.20;;;3.00;75.00;;;;;;6226994;28;20476;-63
2022/02/27 01:16:01;;;;;;;7.30;5.30;;;3.00;74.10;;;;;;6226440;28;20469;-63
2022/02/27 01:19:05;;;;;;;4.43;4.10;;;3.00;73.70;;;;;;6225977;28;20483;-62
2022/02/27 01:22:08;;;;;;;5.20;4.70;;;3.10;73.00;;;;;;6226325;28;20483;-62
2022/02/27 01:25:12;;;;;;;5.43;4.77;;;3.10;72.50;;;;;;6226084;28;20842;-62
2022/02/27 01:28:16;;;;;;;5.00;4.07;;;3.10;71.90;;;;;;6226685;28;20469;-62
2022/02/27 01:31:19;;;;;;;6.00;5.20;;;3.10;71.80;;;;;;6227509;28;20808;-63
2022/02/27 01:34:23;;;;;;;5.07;4.67;;;3.10;71.30;;;;;;6226609;28;20615;-62
2022/02/27 01:37:27;;;;;;;6.53;3.97;;;3.10;70.90;;;;;;6213237;28;20476;-62
2022/02/27 01:40:30;;;;;;;6.30;4.60;;;3.10;70.80;;;;;;6219610;28;20479;-61
2022/02/27 01:43:35;;;;;;;7.60;4.97;;;3.10;70.70;;;;;;6225722;28;20483;-61
2022/02/27 01:46:56;;;;;;;5.00;4.40;;;3.10;70.80;;;;;;6223450;28;20495;-61
2022/02/27 01:50:00;;;;;;;4.17;3.87;;;3.10;71.00;;;;;;6225735;28;20555;-61
2022/02/27 01:53:03;;;;;;;5.90;4.37;;;3.10;71.30;;;;;;6226307;28;20472;-62
2022/02/27 01:56:06;;;;;;;5.03;4.43;;;3.10;71.30;;;;;;6226229;28;20476;-62
2022/02/27 01:59:11;;;;;;;5.40;4.40;;;3.20;71.60;;;;;;6225362;28;20476;-61
2022/02/27 02:02:14;;;;;;;5.40;4.00;;;3.20;71.70;;;;;;6225199;28;20476;-62
2022/02/27 02:05:19;;;;;;;5.60;4.27;;;3.30;72.00;;;;;;6225276;28;20479;-62
2022/02/27 02:08:22;;;;;;;5.00;3.80;;;3.30;72.50;;;;;;6225158;28;20984;-62
2022/02/27 02:11:26;;;;;;;5.10;3.77;;;3.40;72.30;;;;;;6225568;28;20483;-62
2022/02/27 02:14:30;;;;;;;5.77;3.50;;;3.50;72.10;;;;;;6225528;28;20472;-62
2022/02/27 02:17:36;;;;;;;4.90;4.40;;;3.50;72.00;;;;;;6225608;28;20553;-62
2022/02/27 02:20:41;;;;;;;4.87;3.50;;;3.60;71.70;;;;;;6225505;28;20570;-62
2022/02/27 02:23:44;;;;;;;4.10;3.70;;;3.70;71.30;;;;;;6226620;28;20468;-62
2022/02/27 02:26:48;;;;;;;4.40;4.00;;;3.70;70.60;;;;;;6225450;28;20479;-62
2022/02/27 02:29:51;;;;;;;5.80;4.63;;;3.70;70.30;;;;;;6225150;28;20488;-62
2022/02/27 02:32:56;;;;;;;4.30;3.90;;;3.80;71.10;;;;;;6225334;28;20480;-62
2022/02/27 02:36:01;;;;;;;7.77;4.40;;;3.80;70.40;;;;;;6225452;28;20550;-62
2022/02/27 02:39:06;;;;;;;4.80;4.40;;;3.80;70.40;;;;;;6224575;28;20485;-62
2022/02/27 02:42:09;;;;;;;4.93;4.10;;;3.90;70.50;;;;;;6225087;28;20470;-62
2022/02/27 02:45:14;;;;;;;4.50;3.73;;;3.90;69.50;;;;;;6225048;28;20476;-62
2022/02/27 02:48:17;;;;;;;5.07;4.13;;;4.00;70.20;;;;;;6225093;28;20932;-61
2022/02/27 02:51:21;;;;;;;4.63;4.23;;;4.00;69.60;;;;;;6225237;28;20456;-61
2022/02/27 02:54:25;;;;;;;6.73;4.93;;;4.00;69.80;;;;;;6225394;28;20452;-63
2022/02/27 02:57:28;;;;;;;7.80;5.57;;;4.00;69.60;;;;;;6224666;28;20456;-62
2022/02/27 03:00:31;;;;;;;8.33;6.17;;;4.10;69.70;;;;;;6224561;28;20766;-62
2022/02/27 03:03:37;;;;;;;5.53;5.03;;;4.10;69.50;;;;;;6224742;28;20547;-62
2022/02/27 03:06:42;;;;;;;6.00;5.40;;;4.10;68.90;;;;;;6224892;28;20472;-63
2022/02/27 03:09:45;;;;;;;6.13;4.63;;;4.10;68.50;;;;;;6224706;28;20937;-63
2022/02/27 03:12:49;;;;;;;5.40;4.40;;;4.20;68.50;;;;;;6224921;28;20495;-63
2022/02/27 03:15:52;;;;;;;7.83;5.17;;;4.20;68.80;;;;;;6225296;28;20479;-62
2022/02/27 03:18:55;;;;;;;5.00;4.50;;;4.10;69.00;;;;;;6224953;28;20606;-62
2022/02/27 03:21:59;;;;;;;5.63;5.00;;;4.20;69.40;;;;;;6220551;28;20460;-63
2022/02/27 03:25:02;;;;;;;5.67;4.40;;;4.10;69.20;;;;;;6227987;28;20478;-63
2022/02/27 03:28:06;;;;;;;5.83;5.33;;;4.20;69.50;;;;;;6228770;28;20480;-63
2022/02/27 03:31:09;;;;;;;6.73;4.43;;;4.20;69.10;;;;;;6228680;28;21012;-62
2022/02/27 03:34:12;;;;;;;5.57;4.90;;;4.20;69.10;;;;;;6229062;28;20480;-63
2022/02/27 03:37:17;;;;;;;5.03;4.53;;;4.30;68.60;;;;;;6228895;28;20476;-63
2022/02/27 03:40:21;;;;;;;5.67;4.83;;;4.30;68.10;;;;;;6228364;28;20480;-62
2022/02/27 03:43:24;;;;;;;5.20;4.20;;;4.40;68.00;;;;;;6228670;28;20476;-63
2022/02/27 03:46:27;;;;;;;5.10;4.37;;;4.40;67.50;;;;;;6228582;28;20476;-62
2022/02/27 03:49:30;;;;;;;5.30;4.10;;;4.40;67.40;;;;;;6228145;28;20476;-61
2022/02/27 03:52:35;;;;;;;5.23;4.37;;;4.40;68.10;;;;;;6228210;28;20995;-62
2022/02/27 03:55:38;;;;;;;4.37;3.97;;;4.40;67.40;;;;;;6228648;28;20469;-62
2022/02/27 03:58:41;;;;;;;5.47;4.47;;;4.50;67.20;;;;;;6228153;28;20480;-63
2022/02/27 04:01:44;;;;;;;9.40;4.90;;;4.50;66.90;;;;;;6228160;28;20973;-63
2022/02/27 04:04:48;;;;;;;5.50;4.57;;;4.50;66.50;;;;;;6228373;28;20472;-63
2022/02/27 04:07:53;;;;;;;5.77;4.67;;;4.50;66.50;;;;;;6227870;28;20800;-63
2022/02/27 04:10:56;;;;;;;5.30;4.77;;;4.60;66.60;;;;;;6227858;28;20484;-63
2022/02/27 04:13:59;;;;;;;5.60;5.10;;;4.60;66.10;;;;;;6228106;28;20472;-63
2022/02/27 04:17:03;;;;;;;5.70;4.90;;;4.60;65.60;;;;;;6227821;28;20472;-63
2022/02/27 04:20:07;;;;;;;4.20;3.80;;;4.50;65.50;;;;;;6228192;28;20469;-62
2022/02/27 04:23:12;;;;;;;6.20;3.80;;;4.60;65.20;;;;;;6227955;28;20471;-63
2022/02/27 04:26:15;;;;;;;5.10;4.40;;;4.70;64.50;;;;;;6227972;28;20472;-63
2022/02/27 04:29:18;;;;;;;5.83;5.30;;;4.70;64.20;;;;;;6217681;28;20495;-63
2022/02/27 04:32:21;;;;;;;5.57;4.27;;;4.70;63.60;;;;;;6227643;28;20473;-62
2022/02/27 04:35:24;;;;;;;6.17;5.57;;;4.80;63.20;;;;;;6226608;28;20471;-62
2022/02/27 04:38:29;;;;;;;5.87;4.60;;;4.80;62.70;;;;;;6227526;28;20495;-62
2022/02/27 04:41:32;;;;;;;5.30;4.77;;;4.80;62.40;;;;;;6228157;28;20472;-62
2022/02/27 04:44:35;;;;;;;5.80;4.30;;;4.80;62.30;;;;;;6227691;28;20469;-62
2022/02/27 04:47:38;;;;;;;6.47;4.60;;;4.90;62.30;;;;;;6227259;28;20483;-63
2022/02/27 04:50:42;;;;;;;5.03;4.00;;;4.80;61.90;;;;;;6227667;28;20480;-62
2022/02/27 04:53:49;;;;;;;8.57;4.53;;;4.90;62.00;;;;;;6228132;28;20510;-62
2022/02/27 04:56:52;;;;;;;3.90;3.60;;;4.90;61.60;;;;;;6227285;28;20476;-62
2022/02/27 04:59:55;;;;;;;7.87;4.60;;;4.80;61.50;;;;;;6226982;28;20484;-62
2022/02/27 05:02:58;;;;;;;4.57;4.23;;;4.80;61.50;;;;;;6227062;28;20472;-61
2022/02/27 05:06:01;;;;;;;5.20;4.40;;;4.80;61.40;;;;;;6226833;28;20491;-62
2022/02/27 05:09:06;;;;;;;5.33;4.83;;;4.70;61.60;;;;;;6226466;28;20488;-63
2022/02/27 05:12:10;;;;;;;5.97;5.30;;;4.60;61.80;;;;;;6226426;28;20471;-63
2022/02/27 05:15:15;;;;;;;5.93;5.20;;;4.60;62.00;;;;;;6226416;28;20572;-63
2022/02/27 05:18:18;;;;;;;6.33;4.93;;;4.40;62.40;;;;;;6226575;28;20437;-63
2022/02/27 05:21:21;;;;;;;9.93;5.20;;;4.40;62.80;;;;;;6226752;28;20440;-63
2022/02/27 05:24:26;;;;;;;4.63;3.97;;;4.40;62.90;;;;;;6226328;28;20441;-63
2022/02/27 05:27:29;;;;;;;5.83;5.23;;;4.30;62.80;;;;;;6226378;28;20440;-62
2022/02/27 05:30:32;;;;;;;5.33;4.93;;;4.30;62.90;;;;;;6221722;28;20487;-63
2022/02/27 05:33:35;;;;;;;5.40;4.70;;;4.20;63.40;;;;;;6226271;28;20484;-63
2022/02/27 05:36:38;;;;;;;6.13;5.10;;;4.20;63.70;;;;;;6226002;28;20463;-64
2022/02/27 05:39:43;;;;;;;5.30;4.80;;;4.20;64.70;;;;;;6225581;28;20849;-62
2022/02/27 05:42:47;;;;;;;5.50;4.70;;;4.30;63.90;;;;;;6225592;28;20566;-63
2022/02/27 05:45:50;;;;;;;5.60;5.00;;;4.30;63.80;;;;;;6225840;28;20472;-63
2022/02/27 05:48:53;;;;;;;5.10;4.70;;;4.30;63.90;;;;;;6225676;28;20941;-61
2022/02/27 05:51:56;;;;;;;9.40;4.53;;;4.20;64.50;;;;;;6226031;28;20476;-61
2022/02/27 05:55:01;;;;;;;5.70;5.20;;;4.20;64.40;;;;;;6226377;28;20472;-61
2022/02/27 05:58:04;;;;;;;5.60;5.00;;;4.20;64.50;;;;;;6226057;28;20787;-61
2022/02/27 06:01:07;;;;;;;6.50;5.17;;;4.30;64.70;;;;;;6226059;28;20483;-62
2022/02/27 06:04:10;;;;;;;6.57;5.87;;;4.40;64.20;;;;;;6225534;28;20549;-62
2022/02/27 06:07:13;;;;;;;7.13;4.63;;;4.40;64.10;;;;;;6225950;28;21038;-62
2022/02/27 06:10:18;;;;;;;4.70;4.30;;;4.50;64.00;;;;;;6225713;28;20796;-62
2022/02/27 06:13:21;;;;;;;6.80;5.80;;;4.60;64.00;;;;;;6225574;28;20849;-62
2022/02/27 06:16:24;;;;;;;9.70;5.50;;;4.60;63.90;;;;;;6225797;28;20481;-63
2022/02/27 06:19:27;;;;;;;5.77;5.27;;;4.60;63.50;;;;;;6225486;28;20810;-62
2022/02/27 06:22:30;;;;;;;5.77;5.23;;;4.70;63.20;;;;;;6225076;28;20468;-63
2022/02/27 06:25:37;;;;;;;7.80;5.10;;;4.70;63.20;;;;;;6225470;28;20472;-63
2022/02/27 06:28:40;;;;;;;6.23;5.23;;;4.70;62.80;;;;;;6225291;28;20488;-63
2022/02/27 06:31:43;;;;;;;7.27;4.97;;;4.80;62.70;;;;;;6226017;28;20474;-63
2022/02/27 06:34:46;;;;;;;6.13;5.63;;;4.80;62.70;;;;;;6221110;28;20481;-61
2022/02/27 06:37:51;;;;;;;6.43;4.80;;;4.80;62.60;;;;;;6224814;28;20481;-61
2022/02/27 06:40:55;;;;;;;7.60;5.97;;;4.80;62.70;;;;;;6224809;28;20894;-62
2022/02/27 06:43:58;;;;;;;8.10;6.50;;;4.80;61.90;;;;;;6225054;28;20480;-62
2022/02/27 06:47:02;;;;;;;6.13;5.20;;;4.80;61.90;;;;;;6225252;28;20610;-61
2022/02/27 06:50:06;;;;;;;5.33;4.80;;;4.80;61.40;;;;;;6225145;28;20492;-63
2022/02/27 06:53:10;;;;;;;7.70;6.00;;;4.90;60.40;;;;;;6225486;28;20480;-62
2022/02/27 06:56:15;;;;;;;6.20;5.60;;;5.00;60.40;;;;;;6225706;28;20963;-62
2022/02/27 06:59:18;;;;;;;5.33;4.83;;;5.00;59.90;;;;;;6227497;28;20487;-62
2022/02/27 07:02:21;;;;;;;6.70;5.50;;;5.10;59.80;;;;;;6229931;28;20472;-63
2022/02/27 07:05:24;;;;;;;6.33;5.60;;;5.20;59.40;;;;;;6229754;28;20964;-63
2022/02/27 07:08:27;;;;;;;5.83;4.40;;;5.20;58.80;;;;;;6229808;28;20477;-62
2022/02/27 07:11:32;;;;;;;5.20;4.70;;;5.40;58.40;;;;;;6229638;28;20480;-63
2022/02/27 07:14:35;;;;;;;8.70;6.10;;;5.40;58.00;;;;;;6229326;28;20480;-62
2022/02/27 07:17:38;;;;;;;6.50;5.80;;;5.50;57.50;;;;;;6229525;28;20482;-63
2022/02/27 07:20:41;;;;;;;6.23;5.57;;;5.50;57.00;;;;;;6229301;28;20476;-62
2022/02/27 07:23:44;;;;;;;7.37;4.70;;;5.60;56.80;;;;;;6228371;28;20476;-62
2022/02/27 07:26:49;;;;;;;9.73;5.83;;;5.60;56.10;;;;;;6228741;28;20491;-62
2022/02/27 07:29:54;;;;;;;6.43;5.77;;;5.70;56.20;;;;;;6228569;28;20504;-63
2022/02/27 07:32:57;;;;;;;5.90;5.40;;;5.80;55.70;;;;;;6229215;28;20476;-63
2022/02/27 07:36:00;;;;;;;5.27;4.77;;;5.80;55.60;;;;;;6229023;28;20479;-63
2022/02/27 07:39:03;;;;;;;7.97;6.30;;;5.90;55.30;;;;;;6230406;28;20495;-63
2022/02/27 07:42:08;;;;;;;6.77;5.50;;;5.90;54.60;;;;;;6207880;28;20535;-62
2022/02/27 07:45:12;;;;;;;6.07;5.50;;;6.00;54.40;;;;;;6209111;28;20476;-63
2022/02/27 07:48:15;;;;;;;5.70;4.73;;;6.00;54.20;;;;;;6212839;28;20479;-62
2022/02/27 07:51:18;;;;;;;6.97;5.50;;;6.00;54.40;;;;;;6211376;28;20937;-63
2022/02/27 07:54:22;;;;;;;5.60;5.00;;;6.10;54.00;;;;;;6213298;28;20453;-63
2022/02/27 07:57:27;;;;;;;5.50;4.90;;;6.20;53.60;;;;;;6215690;28;20897;-63
2022/02/27 08:00:30;;;;;;;8.37;6.33;;;6.20;53.40;;;;;;6206103;28;20469;-62
2022/02/27 08:03:34;;;;;;;7.10;5.60;;;6.30;53.30;;;;;;6218121;28;20993;-63
2022/02/27 08:06:37;;;;;;;6.53;5.20;;;6.40;52.60;;;;;;6215478;28;20481;-64
2022/02/27 08:09:40;;;;;;;5.50;5.00;;;6.40;52.10;;;;;;6214194;28;20537;-64
2022/02/27 08:12:45;;;;;;;7.23;5.53;;;6.50;52.20;;;;;;6213845;28;20933;-62
2022/02/27 08:15:48;;;;;;;7.30;5.60;;;6.70;52.10;;;;;;6213994;28;20937;-63
2022/02/27 08:18:52;;;;;;;10.03;5.40;;;6.80;51.20;;;;;;6217272;28;20470;-63
2022/02/27 08:21:55;;;;;;;8.80;5.63;;;6.90;50.80;;;;;;6213003;28;20480;-63
2022/02/27 08:24:58;;;;;;;6.23;5.60;;;7.00;49.80;;;;;;6214550;28;20782;-64
2022/02/27 08:28:03;;;;;;;7.20;5.27;;;7.20;49.80;;;;;;6214617;28;20984;-63
2022/02/27 08:31:06;;;;;;;6.33;4.50;;;7.50;49.00;;;;;;6203237;28;20806;-64
2022/02/27 08:34:12;;;;;;;5.23;4.70;;;7.70;48.20;;;;;;6203360;28;20484;-63
2022/02/27 08:37:16;;;;;;;5.90;4.90;;;8.90;47.70;;;;;;6202969;28;20967;-64
2022/02/27 08:40:19;;;;;;;7.00;4.97;;;12.10;40.90;;;;;;6202830;28;20483;-64
2022/02/27 08:43:24;;;;;;;8.90;4.77;;;15.00;35.80;;;;;;6198748;28;20477;-64
2022/02/27 08:46:27;;;;;;;5.40;4.90;;;17.80;30.20;;;;;;6203003;28;20536;-64
2022/02/27 08:49:31;;;;;;;7.27;4.93;;;20.00;27.20;;;;;;6202770;28;20477;-63
2022/02/27 08:52:34;;;;;;;9.10;5.50;;;21.90;25.00;;;;;;6202977;28;20233;-63
2022/02/27 08:55:37;;;;;;;8.23;5.70;;;23.50;23.40;;;;;;6202696;28;20236;-64
2022/02/27 08:58:42;;;;;;;5.83;5.20;;;22.70;21.30;;;;;;6202201;28;20711;-64
2022/02/27 09:01:45;;;;;;;5.60;5.10;;;21.10;22.30;;;;;;6202708;28;20226;-64
2022/02/27 09:04:50;;;;;;;6.17;5.57;;;21.00;22.80;;;;;;6202527;28;20308;-63
2022/02/27 09:07:53;;;;;;;5.80;5.00;;;19.40;23.20;;;;;;6202547;28;20237;-64
2022/02/27 09:10:56;;;;;;;5.77;5.27;;;18.80;23.50;;;;;;6202331;28;20240;-63
2022/02/27 09:14:00;;;;;;;6.07;4.43;;;18.40;23.80;;;;;;6202186;28;20233;-63
2022/02/27 09:17:04;;;;;;;5.23;4.70;;;19.10;23.70;;;;;;6202641;28;20229;-63
2022/02/27 09:20:09;;;;;;;6.63;5.10;;;21.30;23.60;;;;;;6202289;28;20244;-63
2022/02/27 09:23:12;;;;;;;5.53;5.03;;;22.90;21.00;;;;;;6201484;28;20321;-63
2022/02/27 09:26:15;;;;;;;7.80;5.20;;;23.00;20.20;;;;;;6202282;28;20237;-64
2022/02/27 09:29:35;;;;;;;7.10;4.93;;;21.30;21.90;;;;;;6201299;28;20281;-63
2022/02/27 09:32:39;;;;;;;4.93;4.53;;;20.40;22.50;;;;;;6201618;28;20565;-64
2022/02/27 09:35:42;;;;;;;5.87;5.20;;;20.40;22.70;;;;;;6202269;28;20242;-63
2022/02/27 09:38:45;;;;;;;5.77;4.87;;;19.20;23.00;;;;;;6200090;28;20249;-63
2022/02/27 09:41:48;;;;;;;4.63;4.20;;;19.00;22.80;;;;;;6199729;28;20229;-63
2022/02/27 09:44:53;;;;;;;7.90;5.40;;;18.00;23.20;;;;;;6199885;28;20725;-64
2022/02/27 09:47:57;;;;;;;4.43;4.03;;;17.20;24.10;;;;;;6199838;28;20539;-63
2022/02/27 09:51:00;;;;;;;5.37;4.20;;;17.40;24.10;;;;;;6199535;28;20666;-63
2022/02/27 09:54:04;;;;;;;4.27;3.87;;;16.60;23.90;;;;;;6200752;28;20489;-64
2022/02/27 09:57:08;;;;;;;9.43;4.73;;;16.30;25.40;;;;;;6201180;28;20481;-63
2022/02/27 10:00:14;;;;;;;5.47;4.83;;;16.40;24.50;;;;;;6201117;28;20981;-63
2022/02/27 10:03:18;;;;;;;4.40;3.80;;;15.90;24.60;;;;;;6201689;28;20441;-64
2022/02/27 10:06:21;;;;;;;4.90;4.17;;;16.00;24.70;;;;;;6201660;28;20466;-63
2022/02/27 10:09:25;;;;;;;5.13;4.10;;;16.70;23.90;;;;;;6201160;28;20473;-63
2022/02/27 10:12:32;;;;;;;4.80;4.30;;;16.40;23.70;;;;;;6200809;28;20484;-63
2022/02/27 10:15:38;;;;;;;6.53;5.33;;;15.80;24.00;;;;;;6201413;28;20453;-62
2022/02/27 10:18:45;;;;;;;5.70;4.70;;;15.90;23.70;;;;;;6200776;28;20488;-63
2022/02/27 10:21:48;;;;;;;5.83;4.47;;;16.10;23.80;;;;;;6201084;28;20481;-64
2022/02/27 10:24:53;;;;;;;5.93;5.17;;;17.10;23.10;;;;;;6200936;28;20465;-64
2022/02/27 10:27:59;;;;;;;6.13;4.20;;;18.10;22.90;;;;;;6203845;28;20478;-65
2022/02/27 10:31:10;;;;;;;5.13;4.73;;;18.00;22.20;;;;;;6215062;28;20237;-64
2022/02/27 10:34:14;;;;;;;6.53;5.00;;;19.60;22.10;;;;;;6213608;28;20233;-65
2022/02/27 10:37:18;;;;;;;6.03;5.40;;;22.10;20.20;;;;;;6218611;28;20716;-64
2022/02/27 10:40:30;;;;;;;5.87;5.37;;;21.60;20.40;;;;;;6209657;28;20237;-64
2022/02/27 10:43:41;;;;;;;6.60;5.20;;;23.10;19.60;;;;;;6217325;28;20280;-64
2022/02/27 10:46:45;;;;;;;6.10;5.60;;;24.10;19.10;;;;;;6204709;28;20616;-65
2022/02/27 10:49:51;;;;;;;10.23;5.70;;;25.30;18.40;;;;;;6205348;28;20248;-64
2022/02/27 10:52:55;;;;;;;6.27;5.77;;;26.40;17.60;;;;;;6199410;28;20272;-64
2022/02/27 10:55:59;;;;;;;6.33;5.73;;;25.10;17.80;;;;;;6215794;28;20225;-63
2022/02/27 10:59:13;;;;;;;6.13;5.63;;;24.90;18.50;;;;;;6220579;28;20538;-64
2022/02/27 11:02:18;;;;;;;7.03;6.40;;;27.60;17.80;;;;;;6217967;28;20225;-66
2022/02/27 11:05:23;;;;;;;8.40;7.60;;;29.40;16.40;;;;;;6215743;28;20322;-65
2022/02/27 11:08:27;;;;;;;8.53;7.73;;;27.70;16.80;;;;;;6215573;28;20221;-64
2022/02/27 11:11:31;;;;;;;6.50;5.70;;;26.50;17.20;;;;;;6217302;28;20231;-63
2022/02/27 11:14:35;;;;;;;6.50;5.80;;;25.20;17.00;;;;;;6216349;28;20226;-63
2022/02/27 11:17:41;;;;;;;7.10;6.40;;;23.30;17.80;;;;;;6230116;28;20239;-62
2022/02/27 11:20:45;;;;;;;6.43;5.90;;;22.80;18.60;;;;;;6229150;28;20241;-63
2022/02/27 11:23:50;;;;;;;5.77;5.27;;;24.00;18.20;;;;;;6229067;28;20225;-63
2022/02/27 11:26:53;;;;;;;6.97;6.37;;;24.50;17.60;;;;;;6229107;28;20233;-63
2022/02/27 11:29:57;;;;;;;5.37;4.97;;;23.70;17.70;;;;;;6228883;28;20244;-63
2022/02/27 11:33:08;;;;;;;10.90;6.50;;;22.90;18.20;;;;;;6228531;28;20237;-63
2022/02/27 11:36:21;;;;;;;6.53;5.70;;;22.30;20.60;;;;;;6229464;28;20251;-63
2022/02/27 11:42:48;;;;;;;5.63;5.13;;;21.50;18.00;;;;;;6228837;28;20240;-63
2022/02/27 11:45:58;;;;;;;6.93;5.00;;;21.30;18.50;;;;;;6228931;28;20749;-63
2022/02/27 11:49:05;;;;;;;16.63;12.73;;;20.20;19.10;;;;;;6230806;28;20248;-62
2022/02/27 11:52:10;;;;;;;5.40;4.90;;;19.30;19.50;;;;;;6228232;28;20233;-62
2022/02/27 11:55:13;;;;;;;7.57;5.00;;;18.70;19.90;;;;;;6223890;28;20237;-63
2022/02/27 11:58:20;;;;;;;3.93;3.53;;;18.20;19.60;;;;;;6228672;28;20248;-62
2022/02/27 12:01:36;;;;;;;5.97;4.80;;;18.20;19.60;;;;;;6228265;28;20229;-63
2022/02/27 12:04:50;;;;;;;3.90;3.60;;;18.40;19.90;;;;;;6228296;28;20233;-63
2022/02/27 12:08:14;;;;;;;4.83;4.40;;;18.70;19.80;;;;;;6228264;28;20236;-64
2022/02/27 12:11:40;;;;;;;5.43;4.93;;;18.90;19.60;;;;;;6228226;28;20247;-64
2022/02/27 12:14:53;;;;;;;5.77;4.57;;;18.50;19.40;;;;;;6228044;28;20610;-63
2022/02/27 12:18:02;;;;;;;4.70;4.30;;;18.70;19.70;;;;;;6227809;28;20235;-63
2022/02/27 12:21:09;;;;;;;5.83;5.03;;;18.70;19.90;;;;;;6225818;28;20320;-63
2022/02/27 12:24:14;;;;;;;7.23;5.90;;;19.10;19.70;;;;;;6226200;28;20569;-63
2022/02/27 12:27:40;;;;;;;8.20;6.70;;;21.40;19.50;;;;;;6226162;28;20264;-63
2022/02/27 12:30:53;;;;;;;6.40;5.80;;;22.20;18.80;;;;;;6225604;28;20242;-63
2022/02/27 12:33:59;;;;;;;6.37;5.77;;;24.00;19.20;;;;;;6225097;28;20551;-64
2022/02/27 12:37:05;;;;;;;6.40;5.80;;;26.70;17.70;;;;;;6226195;28;20236;-64
2022/02/27 12:40:11;;;;;;;6.33;5.70;;;26.60;16.40;;;;;;6226150;28;20248;-64
2022/02/27 12:43:14;;;;;;;6.60;6.00;;;28.30;16.60;;;;;;6226073;28;20228;-65
2022/02/27 12:46:17;;;;;;;7.90;7.20;;;30.40;15.10;;;;;;6226805;28;20228;-64
2022/02/27 12:52:43;;;;;;;8.13;7.33;;;28.40;16.20;;;;;;6227103;28;20569;-64
2022/02/27 12:55:46;;;;;;;7.60;6.90;;;28.10;16.00;;;;;;6226679;28;20248;-64
2022/02/27 12:58:54;;;;;;;8.57;7.93;;;29.00;16.10;;;;;;6222556;28;20236;-64
2022/02/27 13:01:59;;;;;;;9.00;7.73;;;28.30;16.30;;;;;;6227050;28;20545;-65
2022/02/27 13:05:06;;;;;;;11.97;6.93;;;27.50;16.10;;;;;;6226707;28;20524;-64
2022/02/27 13:08:12;;;;;;;7.70;7.00;;;28.20;16.20;;;;;;6226522;28;20244;-64
2022/02/27 13:11:15;;;;;;;7.37;6.77;;;29.00;15.60;;;;;;6226764;28;20295;-64
2022/02/27 13:14:19;;;;;;;8.13;7.43;;;26.90;15.80;;;;;;6226315;28;20256;-64
2022/02/27 13:17:24;;;;;;;8.97;7.80;;;22.40;18.30;;;;;;6226855;28;20291;-64
2022/02/27 13:20:28;;;;;;;7.70;7.00;;;19.20;20.90;;;;;;6226732;28;20240;-64
2022/02/27 13:23:33;;;;;;;6.47;5.87;;;18.60;21.50;;;;;;6226473;28;20263;-63
2022/02/27 13:26:54;;;;;;;8.83;6.80;;;17.60;22.30;;;;;;6226668;28;20229;-64
2022/02/27 13:29:59;;;;;;;7.40;6.20;;;16.90;23.10;;;;;;6226408;28;20472;-63
2022/02/27 13:33:02;;;;;;;7.40;6.60;;;16.40;23.70;;;;;;6227127;28;20484;-63
2022/02/27 13:36:06;;;;;;;7.77;6.90;;;16.20;24.30;;;;;;6227387;28;20796;-63
2022/02/27 13:39:10;;;;;;;7.47;6.80;;;15.70;24.50;;;;;;6225853;28;20491;-62
2022/02/27 13:42:20;;;;;;;9.53;6.63;;;15.30;25.10;;;;;;6226298;28;20485;-63
2022/02/27 13:45:36;;;;;;;8.57;6.90;;;15.50;25.10;;;;;;6226311;28;20441;-62
2022/02/27 13:48:39;;;;;;;9.57;6.50;;;15.90;24.70;;;;;;6225904;28;20469;-64
2022/02/27 13:51:43;;;;;;;6.80;6.20;;;16.00;24.70;;;;;;6226153;28;20460;-63
2022/02/27 13:54:52;;;;;;;11.03;7.80;;;14.80;25.70;;;;;;6226140;28;20464;-63
2022/02/27 13:58:06;;;;;;;10.30;7.17;;;14.40;26.70;;;;;;6225602;28;20832;-64
2022/02/27 14:01:15;;;;;;;8.57;7.70;;;15.00;26.70;;;;;;6221529;28;20468;-63
2022/02/27 14:04:20;;;;;;;8.63;7.20;;;15.30;26.60;;;;;;6225924;28;20941;-63
2022/02/27 14:07:23;;;;;;;8.60;6.80;;;15.10;26.60;;;;;;6226100;28;20472;-63
2022/02/27 14:10:29;;;;;;;9.80;8.43;;;15.40;26.80;;;;;;6225194;28;20475;-62
2022/02/27 14:13:34;;;;;;;8.57;7.30;;;15.20;26.70;;;;;;6225727;28;20563;-65
2022/02/27 14:16:38;;;;;;;10.53;8.60;;;14.70;26.90;;;;;;6227140;28;20480;-63
2022/02/27 14:19:42;;;;;;;9.47;8.37;;;14.40;27.40;;;;;;6226047;28;20472;-62
2022/02/27 14:22:45;;;;;;;9.33;8.30;;;14.00;27.80;;;;;;6225845;28;20490;-63
2022/02/27 14:25:51;;;;;;;11.17;8.20;;;13.60;28.10;;;;;;6225423;28;20822;-62
2022/02/27 14:28:57;;;;;;;8.67;7.90;;;13.10;28.90;;;;;;6228163;28;20590;-63
2022/02/27 14:32:00;;;;;;;10.00;8.97;;;12.50;29.90;;;;;;6227113;28;20475;-63
2022/02/27 14:35:08;;;;;;;10.07;8.40;;;11.70;30.20;;;;;;6225792;28;20562;-63
2022/02/27 14:38:12;;;;;;;10.33;9.23;;;11.10;31.40;;;;;;6225131;28;20985;-64
2022/02/27 14:41:21;;;;;;;11.50;10.10;;;10.70;32.30;;;;;;6187618;28;20475;-63
2022/02/27 14:44:24;;;;;;;8.70;7.80;;;10.50;33.00;;;;;;6201330;28;20471;-64
2022/02/27 14:47:28;;;;;;;11.23;9.07;;;10.70;33.20;;;;;;6200977;28;20563;-62
2022/02/27 14:50:32;;;;;;;12.37;9.30;;;10.60;33.20;;;;;;6201161;28;20488;-62
2022/02/27 14:53:36;;;;;;;10.60;8.80;;;10.50;33.50;;;;;;6200767;28;20799;-62
2022/02/27 14:56:40;;;;;;;8.70;7.90;;;10.20;34.00;;;;;;6190550;28;20492;-62
2022/02/27 14:59:43;;;;;;;9.13;7.77;;;10.20;34.00;;;;;;6176314;28;20497;-62
2022/02/27 15:02:46;;;;;;;9.03;8.20;;;10.20;33.60;;;;;;6176656;28;20476;-62
2022/02/27 15:05:50;;;;;;;9.27;8.33;;;9.90;35.00;;;;;;6176634;28;20477;-61
2022/02/27 15:08:55;;;;;;;10.80;8.57;;;9.80;35.10;;;;;;6167721;28;20882;-61
2022/02/27 15:11:59;;;;;;;11.10;8.27;;;9.70;35.50;;;;;;6177075;28;20528;-60
2022/02/27 15:15:03;;;;;;;10.20;8.37;;;9.60;36.00;;;;;;6197370;28;20793;-59
2022/02/27 15:18:06;;;;;;;8.93;8.03;;;9.60;36.00;;;;;;6201384;28;20994;-60
2022/02/27 15:21:10;;;;;;;14.23;11.57;;;9.60;35.70;;;;;;6204597;28;21123;-60
2022/02/27 15:24:14;;;;;;;10.80;9.70;;;9.40;35.40;;;;;;6206216;28;20998;-60
2022/02/27 15:27:18;;;;;;;9.67;8.00;;;9.10;35.80;;;;;;6205542;28;20471;-60
2022/02/27 15:30:22;;;;;;;10.17;8.67;;;9.10;36.30;;;;;;6205833;28;20824;-61
2022/02/27 15:33:28;;;;;;;8.00;7.17;;;8.90;36.30;;;;;;6194941;28;20812;-60
2022/02/27 15:36:31;;;;;;;7.60;6.90;;;8.80;36.80;;;;;;6189394;28;20947;-62
2022/02/27 15:39:35;;;;;;;9.07;7.90;;;8.80;36.90;;;;;;6212191;28;20496;-60
2022/02/27 15:42:42;;;;;;;8.37;7.17;;;8.50;37.00;;;;;;6215214;28;20491;-59
2022/02/27 15:45:45;;;;;;;8.23;7.43;;;8.60;36.90;;;;;;6215825;28;20482;-60
2022/02/27 15:48:49;;;;;;;9.77;8.53;;;8.70;36.80;;;;;;6217090;28;20482;-59
2022/02/27 15:51:52;;;;;;;10.50;7.60;;;8.70;36.80;;;;;;6215624;28;20470;-59
2022/02/27 15:54:55;;;;;;;11.53;9.10;;;8.70;36.80;;;;;;6208773;28;20773;-59
2022/02/27 15:58:00;;;;;;;9.97;8.97;;;8.70;36.90;;;;;;6205210;28;20487;-59
2022/02/27 16:01:04;;;;;;;9.43;8.23;;;8.70;37.40;;;;;;6204401;28;20840;-60
2022/02/27 16:04:07;;;;;;;11.23;8.23;;;8.70;37.60;;;;;;6204872;28;20473;-59
2022/02/27 16:07:10;;;;;;;9.83;7.63;;;8.70;37.60;;;;;;6204231;28;20492;-59
2022/02/27 16:10:15;;;;;;;10.90;8.17;;;8.50;37.80;;;;;;6199919;28;20475;-59
2022/02/27 16:13:20;;;;;;;9.33;8.43;;;8.50;38.10;;;;;;6210793;28;20489;-59
2022/02/27 16:16:24;;;;;;;9.90;8.90;;;8.50;38.20;;;;;;6228536;28;20470;-60